sensor_id;sensor_type;location;lat;lon;timestamp;temperature;humidity
46492;DHT22;32206;51.446;6.792;2023-04-06T00:05:38;4.60;1.00
46492;DHT22;32206;51.446;6.792;2023-04-06T00:11:27;4.60;1.00
46492;DHT22;32206;51.446;6.792;2023-04-06T00:13:52;4.60;1.00
46492;DHT22;32206;51.446;6.792;2023-04-06T00:19:40;4.50;11.60
46492;DHT22;32206;51.446;6.792;2023-04-06T00:22:06;4.50;28.70
46492;DHT22;32206;51.446;6.792;2023-04-06T00:27:54;4.40;36.00
46492;DHT22;32206;51.446;6.792;2023-04-06T00:30:20;4.40;28.60
46492;DHT22;32206;51.446;6.792;2023-04-06T00:36:08;4.30;21.00
46492;DHT22;32206;51.446;6.792;2023-04-06T00:38:37;4.30;21.80
46492;DHT22;32206;51.446;6.792;2023-04-06T00:41:04;4.20;23.40
46492;DHT22;32206;51.446;6.792;2023-04-06T00:43:30;4.10;24.90
46492;DHT22;32206;51.446;6.792;2023-04-06T00:45:56;4.10;20.70
46492;DHT22;32206;51.446;6.792;2023-04-06T00:48:22;4.10;15.70
46492;DHT22;32206;51.446;6.792;2023-04-06T00:50:47;4.10;16.00
46492;DHT22;32206;51.446;6.792;2023-04-06T00:53:13;4.00;16.00
46492;DHT22;32206;51.446;6.792;2023-04-06T00:59:01;3.90;13.00
46492;DHT22;32206;51.446;6.792;2023-04-06T01:05:04;3.80;16.90
46492;DHT22;32206;51.446;6.792;2023-04-06T01:07:30;3.70;13.70
46492;DHT22;32206;51.446;6.792;2023-04-06T01:13:24;3.60;15.80
46492;DHT22;32206;51.446;6.792;2023-04-06T01:15:50;3.60;19.80
46492;DHT22;32206;51.446;6.792;2023-04-06T01:18:16;3.60;20.80
46492;DHT22;32206;51.446;6.792;2023-04-06T01:30:47;3.60;1.00
46492;DHT22;32206;51.446;6.792;2023-04-06T01:33:47;3.60;1.00
46492;DHT22;32206;51.446;6.792;2023-04-06T01:36:13;3.70;1.00
46492;DHT22;32206;51.446;6.792;2023-04-06T01:38:39;3.70;1.00
46492;DHT22;32206;51.446;6.792;2023-04-06T01:41:05;3.80;1.00
46492;DHT22;32206;51.446;6.792;2023-04-06T01:43:30;3.80;1.00
46492;DHT22;32206;51.446;6.792;2023-04-06T01:45:56;3.80;1.00
46492;DHT22;32206;51.446;6.792;2023-04-06T01:51:44;3.80;1.00
46492;DHT22;32206;51.446;6.792;2023-04-06T01:54:09;3.80;99.90
46492;DHT22;32206;51.446;6.792;2023-04-06T01:56:35;3.80;99.90
46492;DHT22;32206;51.446;6.792;2023-04-06T01:59:01;3.90;99.90
46492;DHT22;32206;51.446;6.792;2023-04-06T02:01:26;3.90;99.90
46492;DHT22;32206;51.446;6.792;2023-04-06T02:07:14;3.90;99.90
46492;DHT22;32206;51.446;6.792;2023-04-06T02:09:40;3.90;68.50
46492;DHT22;32206;51.446;6.792;2023-04-06T02:12:05;3.80;1.00
46492;DHT22;32206;51.446;6.792;2023-04-06T02:14:32;3.80;96.40
46492;DHT22;32206;51.446;6.792;2023-04-06T02:16:58;3.90;94.30
46492;DHT22;32206;51.446;6.792;2023-04-06T02:19:24;3.90;86.90
46492;DHT22;32206;51.446;6.792;2023-04-06T02:21:49;3.90;99.90
46492;DHT22;32206;51.446;6.792;2023-04-06T02:24:15;3.90;9.40
46492;DHT22;32206;51.446;6.792;2023-04-06T02:26:41;3.90;3.20
46492;DHT22;32206;51.446;6.792;2023-04-06T02:29:07;3.90;29.60
46492;DHT22;32206;51.446;6.792;2023-04-06T02:31:32;4.00;18.50
46492;DHT22;32206;51.446;6.792;2023-04-06T02:33:58;4.00;18.10
46492;DHT22;32206;51.446;6.792;2023-04-06T02:36:24;4.00;1.00
46492;DHT22;32206;51.446;6.792;2023-04-06T02:38:50;4.00;1.00
46492;DHT22;32206;51.446;6.792;2023-04-06T02:41:15;4.00;1.00
46492;DHT22;32206;51.446;6.792;2023-04-06T02:43:41;4.10;1.00
46492;DHT22;32206;51.446;6.792;2023-04-06T02:46:07;4.00;99.90
46492;DHT22;32206;51.446;6.792;2023-04-06T02:52:07;4.10;1.00
46492;DHT22;32206;51.446;6.792;2023-04-06T02:57:55;4.10;99.90
46492;DHT22;32206;51.446;6.792;2023-04-06T03:00:20;4.10;99.90
46492;DHT22;32206;51.446;6.792;2023-04-06T03:09:30;4.10;28.70
46492;DHT22;32206;51.446;6.792;2023-04-06T03:11:56;4.00;79.60
46492;DHT22;32206;51.446;6.792;2023-04-06T03:14:22;4.10;29.50
46492;DHT22;32206;51.446;6.792;2023-04-06T03:16:48;4.00;99.90
46492;DHT22;32206;51.446;6.792;2023-04-06T03:19:14;4.00;99.90
46492;DHT22;32206;51.446;6.792;2023-04-06T03:21:40;4.10;1.00
46492;DHT22;32206;51.446;6.792;2023-04-06T03:24:07;4.00;99.90
46492;DHT22;32206;51.446;6.792;2023-04-06T03:26:32;4.10;99.90
46492;DHT22;32206;51.446;6.792;2023-04-06T03:28:58;4.00;1.00
46492;DHT22;32206;51.446;6.792;2023-04-06T03:31:24;4.00;1.00
46492;DHT22;32206;51.446;6.792;2023-04-06T03:37:37;4.00;1.00
46492;DHT22;32206;51.446;6.792;2023-04-06T03:40:04;4.00;1.00
46492;DHT22;32206;51.446;6.792;2023-04-06T03:45:52;4.00;1.00
46492;DHT22;32206;51.446;6.792;2023-04-06T03:55:02;4.00;90.10
46492;DHT22;32206;51.446;6.792;2023-04-06T04:00:50;4.00;1.00
46492;DHT22;32206;51.446;6.792;2023-04-06T04:03:16;4.00;99.90
46492;DHT22;32206;51.446;6.792;2023-04-06T04:05:42;4.00;99.90
46492;DHT22;32206;51.446;6.792;2023-04-06T04:08:08;3.90;1.00
46492;DHT22;32206;51.446;6.792;2023-04-06T04:10:34;3.90;99.90
46492;DHT22;32206;51.446;6.792;2023-04-06T04:12:59;3.90;1.00
46492;DHT22;32206;51.446;6.792;2023-04-06T04:15:25;3.90;1.00
46492;DHT22;32206;51.446;6.792;2023-04-06T04:17:51;4.00;99.90
46492;DHT22;32206;51.446;6.792;2023-04-06T04:20:17;4.00;99.90
46492;DHT22;32206;51.446;6.792;2023-04-06T04:22:42;4.00;1.00
46492;DHT22;32206;51.446;6.792;2023-04-06T04:25:09;4.00;1.00
46492;DHT22;32206;51.446;6.792;2023-04-06T04:27:35;4.00;1.00
46492;DHT22;32206;51.446;6.792;2023-04-06T04:30:00;4.10;99.90
46492;DHT22;32206;51.446;6.792;2023-04-06T04:32:26;4.10;99.90
46492;DHT22;32206;51.446;6.792;2023-04-06T04:38:14;4.10;99.90
46492;DHT22;32206;51.446;6.792;2023-04-06T04:40:40;4.10;99.90
46492;DHT22;32206;51.446;6.792;2023-04-06T04:46:28;4.10;1.00
46492;DHT22;32206;51.446;6.792;2023-04-06T04:55:38;4.10;99.90
46492;DHT22;32206;51.446;6.792;2023-04-06T04:58:04;4.10;99.90
46492;DHT22;32206;51.446;6.792;2023-04-06T05:00:29;4.10;99.90
46492;DHT22;32206;51.446;6.792;2023-04-06T05:02:55;4.10;99.90
46492;DHT22;32206;51.446;6.792;2023-04-06T05:05:21;4.00;99.90
46492;DHT22;32206;51.446;6.792;2023-04-06T05:07:47;4.10;99.90
46492;DHT22;32206;51.446;6.792;2023-04-06T05:10:12;4.10;99.90
46492;DHT22;32206;51.446;6.792;2023-04-06T05:16:10;4.10;99.90
46492;DHT22;32206;51.446;6.792;2023-04-06T05:18:36;4.20;99.90
46492;DHT22;32206;51.446;6.792;2023-04-06T05:24:24;4.20;99.90
46492;DHT22;32206;51.446;6.792;2023-04-06T05:26:50;4.20;99.90
46492;DHT22;32206;51.446;6.792;2023-04-06T05:29:16;4.30;58.00
46492;DHT22;32206;51.446;6.792;2023-04-06T05:31:42;4.30;1.00
46492;DHT22;32206;51.446;6.792;2023-04-06T05:34:08;4.30;1.00
46492;DHT22;32206;51.446;6.792;2023-04-06T05:36:35;4.30;1.00
46492;DHT22;32206;51.446;6.792;2023-04-06T05:39:01;4.40;99.90
46492;DHT22;32206;51.446;6.792;2023-04-06T05:41:26;4.40;99.90
46492;DHT22;32206;51.446;6.792;2023-04-06T05:43:52;4.40;99.90
46492;DHT22;32206;51.446;6.792;2023-04-06T05:46:18;4.40;1.00
46492;DHT22;32206;51.446;6.792;2023-04-06T05:48:45;4.40;99.90
46492;DHT22;32206;51.446;6.792;2023-04-06T05:54:58;4.50;99.90
46492;DHT22;32206;51.446;6.792;2023-04-06T05:57:24;4.60;99.90
46492;DHT22;32206;51.446;6.792;2023-04-06T05:59:50;4.60;11.60
46492;DHT22;32206;51.446;6.792;2023-04-06T06:02:15;4.60;1.00
46492;DHT22;32206;51.446;6.792;2023-04-06T06:11:26;4.60;1.00
46492;DHT22;32206;51.446;6.792;2023-04-06T06:17:14;4.70;1.00
46492;DHT22;32206;51.446;6.792;2023-04-06T06:19:40;4.70;1.00
46492;DHT22;32206;51.446;6.792;2023-04-06T06:22:06;4.80;99.90
46492;DHT22;32206;51.446;6.792;2023-04-06T06:24:32;4.90;99.90
46492;DHT22;32206;51.446;6.792;2023-04-06T06:26:57;4.90;99.90
46492;DHT22;32206;51.446;6.792;2023-04-06T06:29:23;4.90;99.90
46492;DHT22;32206;51.446;6.792;2023-04-06T06:31:49;5.00;99.90
46492;DHT22;32206;51.446;6.792;2023-04-06T06:34:15;5.10;1.00
46492;DHT22;32206;51.446;6.792;2023-04-06T06:36:41;5.20;1.00
46492;DHT22;32206;51.446;6.792;2023-04-06T06:39:07;5.30;1.00
46492;DHT22;32206;51.446;6.792;2023-04-06T06:41:32;5.40;99.90
46492;DHT22;32206;51.446;6.792;2023-04-06T06:47:20;5.50;99.90
46492;DHT22;32206;51.446;6.792;2023-04-06T06:49:46;5.60;99.90
46492;DHT22;32206;51.446;6.792;2023-04-06T06:52:11;5.70;99.90
46492;DHT22;32206;51.446;6.792;2023-04-06T06:54:37;5.70;99.90
46492;DHT22;32206;51.446;6.792;2023-04-06T06:57:03;5.80;19.70
46492;DHT22;32206;51.446;6.792;2023-04-06T06:59:28;6.00;20.00
46492;DHT22;32206;51.446;6.792;2023-04-06T07:01:54;6.10;1.00
46492;DHT22;32206;51.446;6.792;2023-04-06T07:11:05;6.40;1.00
46492;DHT22;32206;51.446;6.792;2023-04-06T07:13:30;6.50;99.90
46492;DHT22;32206;51.446;6.792;2023-04-06T07:15:56;6.60;99.90
46492;DHT22;32206;51.446;6.792;2023-04-06T07:18:22;6.70;99.90
46492;DHT22;32206;51.446;6.792;2023-04-06T07:27:32;7.20;99.90
46492;DHT22;32206;51.446;6.792;2023-04-06T07:29:58;7.30;99.90
46492;DHT22;32206;51.446;6.792;2023-04-06T07:32:23;7.40;99.90
46492;DHT22;32206;51.446;6.792;2023-04-06T07:34:49;7.60;99.90
46492;DHT22;32206;51.446;6.792;2023-04-06T07:40:37;7.80;41.30
46492;DHT22;32206;51.446;6.792;2023-04-06T07:43:03;7.90;9.80
46492;DHT22;32206;51.446;6.792;2023-04-06T07:45:29;7.90;6.20
46492;DHT22;32206;51.446;6.792;2023-04-06T07:47:55;7.90;1.00
46492;DHT22;32206;51.446;6.792;2023-04-06T07:50:21;8.00;1.00
46492;DHT22;32206;51.446;6.792;2023-04-06T07:56:09;8.40;1.00
46492;DHT22;32206;51.446;6.792;2023-04-06T07:58:34;8.80;99.90
46492;DHT22;32206;51.446;6.792;2023-04-06T08:01:01;8.90;1.00
46492;DHT22;32206;51.446;6.792;2023-04-06T08:10:39;9.60;1.00
46492;DHT22;32206;51.446;6.792;2023-04-06T08:13:05;9.80;1.00
46492;DHT22;32206;51.446;6.792;2023-04-06T08:15:31;9.80;1.00
46492;DHT22;32206;51.446;6.792;2023-04-06T08:17:57;9.90;99.90
46492;DHT22;32206;51.446;6.792;2023-04-06T08:20:23;10.00;99.90
46492;DHT22;32206;51.446;6.792;2023-04-06T08:26:10;10.00;99.90
46492;DHT22;32206;51.446;6.792;2023-04-06T08:28:36;10.10;99.90
46492;DHT22;32206;51.446;6.792;2023-04-06T08:31:05;10.20;99.90
46492;DHT22;32206;51.446;6.792;2023-04-06T08:33:32;10.20;99.90
46492;DHT22;32206;51.446;6.792;2023-04-06T08:36:07;10.30;99.90
46492;DHT22;32206;51.446;6.792;2023-04-06T08:38:33;10.50;99.90
46492;DHT22;32206;51.446;6.792;2023-04-06T08:40:59;10.50;99.90
46492;DHT22;32206;51.446;6.792;2023-04-06T08:43:26;10.60;99.90
46492;DHT22;32206;51.446;6.792;2023-04-06T08:45:53;10.60;99.90
46492;DHT22;32206;51.446;6.792;2023-04-06T08:48:18;10.80;99.90
46492;DHT22;32206;51.446;6.792;2023-04-06T08:50:45;10.90;99.90
46492;DHT22;32206;51.446;6.792;2023-04-06T08:53:11;11.00;99.90
46492;DHT22;32206;51.446;6.792;2023-04-06T08:55:38;11.10;99.90
46492;DHT22;32206;51.446;6.792;2023-04-06T08:58:07;11.40;99.90
46492;DHT22;32206;51.446;6.792;2023-04-06T09:00:36;11.60;99.90
46492;DHT22;32206;51.446;6.792;2023-04-06T09:03:03;11.60;99.90
46492;DHT22;32206;51.446;6.792;2023-04-06T09:05:30;11.50;99.90
46492;DHT22;32206;51.446;6.792;2023-04-06T09:07:56;11.60;99.90
46492;DHT22;32206;51.446;6.792;2023-04-06T09:10:22;11.70;99.90
46492;DHT22;32206;51.446;6.792;2023-04-06T09:12:50;11.90;99.90
46492;DHT22;32206;51.446;6.792;2023-04-06T09:15:22;12.00;99.90
46492;DHT22;32206;51.446;6.792;2023-04-06T09:17:48;12.10;99.90
46492;DHT22;32206;51.446;6.792;2023-04-06T09:20:13;12.10;99.90
46492;DHT22;32206;51.446;6.792;2023-04-06T09:22:40;12.00;99.90
46492;DHT22;32206;51.446;6.792;2023-04-06T09:25:08;12.00;99.90
46492;DHT22;32206;51.446;6.792;2023-04-06T09:27:36;12.10;99.90
46492;DHT22;32206;51.446;6.792;2023-04-06T09:30:04;12.10;99.90
46492;DHT22;32206;51.446;6.792;2023-04-06T09:32:30;12.10;99.90
46492;DHT22;32206;51.446;6.792;2023-04-06T09:35:09;12.20;99.90
46492;DHT22;32206;51.446;6.792;2023-04-06T09:37:35;12.30;99.90
46492;DHT22;32206;51.446;6.792;2023-04-06T09:40:08;12.30;99.90
46492;DHT22;32206;51.446;6.792;2023-04-06T09:42:35;12.40;99.90
46492;DHT22;32206;51.446;6.792;2023-04-06T09:45:01;12.50;99.90
46492;DHT22;32206;51.446;6.792;2023-04-06T09:47:28;12.50;99.90
46492;DHT22;32206;51.446;6.792;2023-04-06T09:49:57;12.60;99.90
46492;DHT22;32206;51.446;6.792;2023-04-06T09:52:30;12.60;99.90
46492;DHT22;32206;51.446;6.792;2023-04-06T09:55:02;12.70;99.90
46492;DHT22;32206;51.446;6.792;2023-04-06T09:57:32;12.80;99.90
46492;DHT22;32206;51.446;6.792;2023-04-06T10:00:06;12.80;99.90
46492;DHT22;32206;51.446;6.792;2023-04-06T10:07:54;13.10;99.90
46492;DHT22;32206;51.446;6.792;2023-04-06T10:10:21;13.40;99.90
46492;DHT22;32206;51.446;6.792;2023-04-06T10:12:48;13.50;99.90
46492;DHT22;32206;51.446;6.792;2023-04-06T10:15:14;13.60;99.90
46492;DHT22;32206;51.446;6.792;2023-04-06T10:17:40;13.70;99.90
46492;DHT22;32206;51.446;6.792;2023-04-06T10:20:11;13.70;99.90
46492;DHT22;32206;51.446;6.792;2023-04-06T10:22:45;13.70;99.90
46492;DHT22;32206;51.446;6.792;2023-04-06T10:25:27;13.80;99.90
46492;DHT22;32206;51.446;6.792;2023-04-06T10:28:02;13.90;99.90
46492;DHT22;32206;51.446;6.792;2023-04-06T10:30:30;13.90;99.90
46492;DHT22;32206;51.446;6.792;2023-04-06T10:32:56;13.90;99.90
46492;DHT22;32206;51.446;6.792;2023-04-06T10:35:22;14.00;99.90
46492;DHT22;32206;51.446;6.792;2023-04-06T10:37:54;14.20;99.90
46492;DHT22;32206;51.446;6.792;2023-04-06T10:40:26;14.20;99.90
46492;DHT22;32206;51.446;6.792;2023-04-06T10:43:06;14.20;99.90
46492;DHT22;32206;51.446;6.792;2023-04-06T10:45:32;14.40;99.90
46492;DHT22;32206;51.446;6.792;2023-04-06T10:47:57;14.50;99.90
46492;DHT22;32206;51.446;6.792;2023-04-06T10:50:23;14.60;98.80
46492;DHT22;32206;51.446;6.792;2023-04-06T10:52:59;14.50;99.90
46492;DHT22;32206;51.446;6.792;2023-04-06T10:55:26;14.50;99.90
46492;DHT22;32206;51.446;6.792;2023-04-06T10:57:53;14.30;99.90
46492;DHT22;32206;51.446;6.792;2023-04-06T11:00:19;14.10;99.90
46492;DHT22;32206;51.446;6.792;2023-04-06T11:02:45;14.00;99.90
46492;DHT22;32206;51.446;6.792;2023-04-06T11:05:12;14.00;99.90
46492;DHT22;32206;51.446;6.792;2023-04-06T11:07:41;13.90;99.90
46492;DHT22;32206;51.446;6.792;2023-04-06T11:10:10;13.90;99.90
46492;DHT22;32206;51.446;6.792;2023-04-06T11:12:35;13.90;99.90
46492;DHT22;32206;51.446;6.792;2023-04-06T11:15:03;13.70;99.90
46492;DHT22;32206;51.446;6.792;2023-04-06T11:17:35;13.50;99.90
46492;DHT22;32206;51.446;6.792;2023-04-06T11:20:03;13.40;99.90
46492;DHT22;32206;51.446;6.792;2023-04-06T11:22:30;13.40;99.90
46492;DHT22;32206;51.446;6.792;2023-04-06T11:25:08;13.40;99.90
46492;DHT22;32206;51.446;6.792;2023-04-06T11:27:34;13.40;99.90
46492;DHT22;32206;51.446;6.792;2023-04-06T11:30:01;13.60;99.90
46492;DHT22;32206;51.446;6.792;2023-04-06T11:32:27;13.60;99.90
46492;DHT22;32206;51.446;6.792;2023-04-06T11:34:53;13.70;99.90
46492;DHT22;32206;51.446;6.792;2023-04-06T11:37:19;13.60;99.90
46492;DHT22;32206;51.446;6.792;2023-04-06T11:39:50;13.60;99.90
46492;DHT22;32206;51.446;6.792;2023-04-06T11:42:27;13.60;99.90
46492;DHT22;32206;51.446;6.792;2023-04-06T11:44:57;13.70;99.90
46492;DHT22;32206;51.446;6.792;2023-04-06T11:47:32;13.70;99.90
46492;DHT22;32206;51.446;6.792;2023-04-06T11:50:12;13.70;99.90
46492;DHT22;32206;51.446;6.792;2023-04-06T11:52:39;13.60;99.90
46492;DHT22;32206;51.446;6.792;2023-04-06T11:55:16;13.60;99.90
46492;DHT22;32206;51.446;6.792;2023-04-06T11:57:42;13.50;99.90
46492;DHT22;32206;51.446;6.792;2023-04-06T12:00:09;13.40;99.90
46492;DHT22;32206;51.446;6.792;2023-04-06T12:02:36;13.40;99.90
46492;DHT22;32206;51.446;6.792;2023-04-06T12:05:03;13.40;99.90
46492;DHT22;32206;51.446;6.792;2023-04-06T12:07:29;13.30;99.90
46492;DHT22;32206;51.446;6.792;2023-04-06T12:09:55;13.30;99.90
46492;DHT22;32206;51.446;6.792;2023-04-06T12:12:21;13.30;99.90
46492;DHT22;32206;51.446;6.792;2023-04-06T12:14:47;13.30;99.90
46492;DHT22;32206;51.446;6.792;2023-04-06T12:17:13;13.40;99.90
46492;DHT22;32206;51.446;6.792;2023-04-06T12:19:38;13.50;99.90
46492;DHT22;32206;51.446;6.792;2023-04-06T12:22:04;13.50;99.90
46492;DHT22;32206;51.446;6.792;2023-04-06T12:24:30;13.50;99.90
46492;DHT22;32206;51.446;6.792;2023-04-06T12:26:56;13.50;99.90
46492;DHT22;32206;51.446;6.792;2023-04-06T12:29:24;13.50;99.90
46492;DHT22;32206;51.446;6.792;2023-04-06T12:31:50;13.60;99.90
46492;DHT22;32206;51.446;6.792;2023-04-06T12:34:16;13.60;99.90
46492;DHT22;32206;51.446;6.792;2023-04-06T12:36:42;13.50;99.90
46492;DHT22;32206;51.446;6.792;2023-04-06T12:39:07;13.50;99.90
46492;DHT22;32206;51.446;6.792;2023-04-06T12:41:33;13.50;99.90
46492;DHT22;32206;51.446;6.792;2023-04-06T12:44:00;13.50;99.90
46492;DHT22;32206;51.446;6.792;2023-04-06T12:46:34;13.50;99.90
46492;DHT22;32206;51.446;6.792;2023-04-06T12:49:00;13.50;99.90
46492;DHT22;32206;51.446;6.792;2023-04-06T12:51:29;13.50;99.90
46492;DHT22;32206;51.446;6.792;2023-04-06T12:53:56;13.50;99.90
46492;DHT22;32206;51.446;6.792;2023-04-06T12:56:22;13.50;99.90
46492;DHT22;32206;51.446;6.792;2023-04-06T12:58:49;13.40;99.90
46492;DHT22;32206;51.446;6.792;2023-04-06T13:01:16;13.20;99.90
46492;DHT22;32206;51.446;6.792;2023-04-06T13:03:42;13.20;99.90
46492;DHT22;32206;51.446;6.792;2023-04-06T13:06:08;13.00;99.90
46492;DHT22;32206;51.446;6.792;2023-04-06T13:08:34;13.10;99.90
46492;DHT22;32206;51.446;6.792;2023-04-06T13:11:00;13.20;99.90
46492;DHT22;32206;51.446;6.792;2023-04-06T13:13:28;13.30;99.90
46492;DHT22;32206;51.446;6.792;2023-04-06T13:15:55;13.30;99.90
46492;DHT22;32206;51.446;6.792;2023-04-06T13:18:21;13.30;99.90
46492;DHT22;32206;51.446;6.792;2023-04-06T13:20:48;13.10;99.90
46492;DHT22;32206;51.446;6.792;2023-04-06T13:23:14;13.10;99.90
46492;DHT22;32206;51.446;6.792;2023-04-06T13:25:40;13.00;99.90
46492;DHT22;32206;51.446;6.792;2023-04-06T13:31:28;12.90;99.90
46492;DHT22;32206;51.446;6.792;2023-04-06T13:40:40;13.10;99.90
46492;DHT22;32206;51.446;6.792;2023-04-06T13:43:06;12.90;99.90
46492;DHT22;32206;51.446;6.792;2023-04-06T13:45:32;12.80;99.90
46492;DHT22;32206;51.446;6.792;2023-04-06T13:47:58;12.70;99.90
46492;DHT22;32206;51.446;6.792;2023-04-06T13:50:26;12.60;1.00
46492;DHT22;32206;51.446;6.792;2023-04-06T13:52:52;12.50;1.00
46492;DHT22;32206;51.446;6.792;2023-04-06T13:55:21;12.50;1.00
46492;DHT22;32206;51.446;6.792;2023-04-06T14:01:02;12.60;99.50
46492;DHT22;32206;51.446;6.792;2023-04-06T14:03:28;12.50;1.00
46492;DHT22;32206;51.446;6.792;2023-04-06T14:05:53;12.20;12.90
46492;DHT22;32206;51.446;6.792;2023-04-06T14:08:19;12.20;99.90
46492;DHT22;32206;51.446;6.792;2023-04-06T14:14:39;11.90;1.00
46492;DHT22;32206;51.446;6.792;2023-04-06T14:17:05;11.80;99.90
46492;DHT22;32206;51.446;6.792;2023-04-06T14:19:31;11.60;99.90
46492;DHT22;32206;51.446;6.792;2023-04-06T14:21:57;11.50;1.00
46492;DHT22;32206;51.446;6.792;2023-04-06T14:24:23;11.60;1.00
46492;DHT22;32206;51.446;6.792;2023-04-06T14:33:32;11.50;1.00
46492;DHT22;32206;51.446;6.792;2023-04-06T14:35:58;11.60;1.00
46492;DHT22;32206;51.446;6.792;2023-04-06T14:38:24;11.60;1.00
46492;DHT22;32206;51.446;6.792;2023-04-06T14:40:49;11.60;1.00
46492;DHT22;32206;51.446;6.792;2023-04-06T14:43:15;11.60;1.00
46492;DHT22;32206;51.446;6.792;2023-04-06T14:45:41;11.50;1.00
46492;DHT22;32206;51.446;6.792;2023-04-06T14:48:07;11.40;1.00
46492;DHT22;32206;51.446;6.792;2023-04-06T14:50:37;11.30;1.00
46492;DHT22;32206;51.446;6.792;2023-04-06T14:53:03;11.30;1.00
46492;DHT22;32206;51.446;6.792;2023-04-06T14:55:29;11.30;1.00
46492;DHT22;32206;51.446;6.792;2023-04-06T15:01:18;11.20;1.00
46492;DHT22;32206;51.446;6.792;2023-04-06T15:03:44;11.20;1.00
46492;DHT22;32206;51.446;6.792;2023-04-06T15:09:32;11.10;1.00
46492;DHT22;32206;51.446;6.792;2023-04-06T15:11:58;10.90;1.00
46492;DHT22;32206;51.446;6.792;2023-04-06T15:14:24;10.90;13.60
46492;DHT22;32206;51.446;6.792;2023-04-06T15:16:50;10.90;21.00
46492;DHT22;32206;51.446;6.792;2023-04-06T15:19:15;10.80;14.40
46492;DHT22;32206;51.446;6.792;2023-04-06T15:21:41;10.80;41.60
46492;DHT22;32206;51.446;6.792;2023-04-06T15:24:07;10.80;49.00
46492;DHT22;32206;51.446;6.792;2023-04-06T15:26:35;10.70;60.70
46492;DHT22;32206;51.446;6.792;2023-04-06T15:29:02;10.60;63.50
46492;DHT22;32206;51.446;6.792;2023-04-06T15:31:29;10.50;70.50
46492;DHT22;32206;51.446;6.792;2023-04-06T15:33:55;10.50;83.20
46492;DHT22;32206;51.446;6.792;2023-04-06T15:39:46;10.30;77.80
46492;DHT22;32206;51.446;6.792;2023-04-06T15:42:11;10.20;84.80
46492;DHT22;32206;51.446;6.792;2023-04-06T15:44:37;10.20;93.40
46492;DHT22;32206;51.446;6.792;2023-04-06T15:47:03;10.20;91.10
46492;DHT22;32206;51.446;6.792;2023-04-06T15:49:29;10.10;94.20
46492;DHT22;32206;51.446;6.792;2023-04-06T15:51:55;10.10;94.40
46492;DHT22;32206;51.446;6.792;2023-04-06T15:54:21;10.10;95.50
46492;DHT22;32206;51.446;6.792;2023-04-06T15:56:48;10.10;95.40
46492;DHT22;32206;51.446;6.792;2023-04-06T15:59:13;10.00;91.30
46492;DHT22;32206;51.446;6.792;2023-04-06T16:01:39;9.80;89.90
46492;DHT22;32206;51.446;6.792;2023-04-06T16:04:07;9.80;95.10
46492;DHT22;32206;51.446;6.792;2023-04-06T16:06:34;9.80;92.40
46492;DHT22;32206;51.446;6.792;2023-04-06T16:09:00;9.70;90.00
46492;DHT22;32206;51.446;6.792;2023-04-06T16:11:27;9.60;94.70
46492;DHT22;32206;51.446;6.792;2023-04-06T16:17:34;9.50;97.70
46492;DHT22;32206;51.446;6.792;2023-04-06T16:19:59;9.50;99.90
46492;DHT22;32206;51.446;6.792;2023-04-06T16:22:25;9.50;99.90
46492;DHT22;32206;51.446;6.792;2023-04-06T16:24:53;9.40;99.50
46492;DHT22;32206;51.446;6.792;2023-04-06T16:27:19;9.40;99.90
46492;DHT22;32206;51.446;6.792;2023-04-06T16:29:44;9.30;99.90
46492;DHT22;32206;51.446;6.792;2023-04-06T16:32:11;9.30;99.90
46492;DHT22;32206;51.446;6.792;2023-04-06T16:34:37;9.30;99.90
46492;DHT22;32206;51.446;6.792;2023-04-06T16:40:25;9.10;99.90
46492;DHT22;32206;51.446;6.792;2023-04-06T16:42:51;9.00;99.90
46492;DHT22;32206;51.446;6.792;2023-04-06T16:45:20;9.00;99.90
46492;DHT22;32206;51.446;6.792;2023-04-06T16:47:46;9.10;99.90
46492;DHT22;32206;51.446;6.792;2023-04-06T16:50:14;9.10;99.90
46492;DHT22;32206;51.446;6.792;2023-04-06T16:52:40;9.10;99.90
46492;DHT22;32206;51.446;6.792;2023-04-06T16:55:06;9.10;99.90
46492;DHT22;32206;51.446;6.792;2023-04-06T17:00:54;8.90;99.90
46492;DHT22;32206;51.446;6.792;2023-04-06T17:03:21;8.80;99.90
46492;DHT22;32206;51.446;6.792;2023-04-06T17:05:46;8.70;99.90
46492;DHT22;32206;51.446;6.792;2023-04-06T17:15:00;8.70;99.90
46492;DHT22;32206;51.446;6.792;2023-04-06T17:17:26;8.70;99.90
46492;DHT22;32206;51.446;6.792;2023-04-06T17:19:52;8.70;99.90
46492;DHT22;32206;51.446;6.792;2023-04-06T17:22:18;8.70;99.90
46492;DHT22;32206;51.446;6.792;2023-04-06T17:24:46;8.60;99.90
46492;DHT22;32206;51.446;6.792;2023-04-06T17:27:11;8.60;99.90
46492;DHT22;32206;51.446;6.792;2023-04-06T17:29:37;8.60;99.90
46492;DHT22;32206;51.446;6.792;2023-04-06T17:32:03;8.50;99.90
46492;DHT22;32206;51.446;6.792;2023-04-06T17:37:53;8.40;99.90
46492;DHT22;32206;51.446;6.792;2023-04-06T17:40:19;8.40;99.90
46492;DHT22;32206;51.446;6.792;2023-04-06T17:42:45;8.40;99.90
46492;DHT22;32206;51.446;6.792;2023-04-06T17:45:11;8.40;99.90
46492;DHT22;32206;51.446;6.792;2023-04-06T17:47:37;8.40;99.90
46492;DHT22;32206;51.446;6.792;2023-04-06T17:50:02;8.30;99.90
46492;DHT22;32206;51.446;6.792;2023-04-06T17:52:28;8.30;99.90
46492;DHT22;32206;51.446;6.792;2023-04-06T17:54:54;8.30;99.90
46492;DHT22;32206;51.446;6.792;2023-04-06T17:57:21;8.30;99.90
46492;DHT22;32206;51.446;6.792;2023-04-06T17:59:47;8.30;99.90
46492;DHT22;32206;51.446;6.792;2023-04-06T18:02:12;8.30;99.90
46492;DHT22;32206;51.446;6.792;2023-04-06T18:04:38;8.20;99.90
46492;DHT22;32206;51.446;6.792;2023-04-06T18:10:20;8.10;99.90
46492;DHT22;32206;51.446;6.792;2023-04-06T18:12:45;8.10;99.90
46492;DHT22;32206;51.446;6.792;2023-04-06T18:15:11;8.10;99.90
46492;DHT22;32206;51.446;6.792;2023-04-06T18:17:37;8.10;99.90
46492;DHT22;32206;51.446;6.792;2023-04-06T18:20:03;8.10;99.90
46492;DHT22;32206;51.446;6.792;2023-04-06T18:22:31;8.10;99.90
46492;DHT22;32206;51.446;6.792;2023-04-06T18:24:57;8.10;99.90
46492;DHT22;32206;51.446;6.792;2023-04-06T18:27:26;8.10;99.90
46492;DHT22;32206;51.446;6.792;2023-04-06T18:33:10;8.00;99.90
46492;DHT22;32206;51.446;6.792;2023-04-06T18:35:35;8.00;99.90
46492;DHT22;32206;51.446;6.792;2023-04-06T18:41:24;8.10;99.90
46492;DHT22;32206;51.446;6.792;2023-04-06T18:43:51;8.00;99.90
46492;DHT22;32206;51.446;6.792;2023-04-06T18:49:38;8.00;99.90
46492;DHT22;32206;51.446;6.792;2023-04-06T18:52:04;8.00;99.90
46492;DHT22;32206;51.446;6.792;2023-04-06T18:54:30;7.90;99.90
46492;DHT22;32206;51.446;6.792;2023-04-06T18:56:56;7.90;99.90
46492;DHT22;32206;51.446;6.792;2023-04-06T18:59:22;8.00;99.90
46492;DHT22;32206;51.446;6.792;2023-04-06T19:01:48;7.90;99.90
46492;DHT22;32206;51.446;6.792;2023-04-06T19:04:18;7.90;99.90
46492;DHT22;32206;51.446;6.792;2023-04-06T19:06:44;7.90;99.90
46492;DHT22;32206;51.446;6.792;2023-04-06T19:19:36;7.90;99.90
46492;DHT22;32206;51.446;6.792;2023-04-06T19:22:02;7.90;99.90
46492;DHT22;32206;51.446;6.792;2023-04-06T19:24:27;7.80;99.90
46492;DHT22;32206;51.446;6.792;2023-04-06T19:26:54;7.80;99.90